Time;durP1;ratioP1;P1;durP2;ratioP2;P2;SDS_P1;SDS_P2;PMS_P1;PMS_P2;Temp;Humidity;BMP_temperature;BMP_pressure;BME280_temperature;BME280_humidity;BME280_pressure;Samples;Min_cycle;Max_cycle;Signal;HPM_P1;HPM_P2
2022/03/01 00:02:20;;;;;;;16.85;10.23;;;3.90;99.90;;;;;;5071114;28;20118;-43
2022/03/01 00:04:46;;;;;;;21.83;10.70;;;3.90;99.90;;;;;;5070275;28;20051;-43
2022/03/01 00:07:12;;;;;;;18.63;10.73;;;3.90;99.90;;;;;;5071174;28;20036;-46
2022/03/01 00:09:37;;;;;;;18.73;11.00;;;3.80;99.90;;;;;;5071048;28;20391;-47
2022/03/01 00:12:04;;;;;;;19.65;11.18;;;3.80;99.90;;;;;;5070962;28;20494;-46
2022/03/01 00:14:29;;;;;;;18.17;10.25;;;3.80;99.90;;;;;;5070527;28;20041;-48
2022/03/01 00:16:55;;;;;;;16.98;10.63;;;3.80;99.90;;;;;;5070550;28;20040;-43
2022/03/01 00:19:21;;;;;;;17.00;10.32;;;3.70;99.90;;;;;;5070981;28;20036;-46
2022/03/01 00:21:47;;;;;;;20.85;11.23;;;3.70;99.90;;;;;;5069961;28;20041;-45
2022/03/01 00:24:13;;;;;;;18.25;10.75;;;3.70;99.90;;;;;;5069530;28;20043;-43
2022/03/01 00:26:39;;;;;;;17.95;11.18;;;3.80;99.90;;;;;;5070139;28;20129;-44
2022/03/01 00:29:05;;;;;;;19.80;10.73;;;3.60;99.90;;;;;;5052449;28;20076;-46
2022/03/01 00:31:32;;;;;;;19.77;10.88;;;3.60;99.90;;;;;;5068834;28;20106;-42
2022/03/01 00:33:57;;;;;;;21.30;11.40;;;3.60;99.90;;;;;;5069715;28;20040;-42
2022/03/01 00:36:23;;;;;;;21.40;11.20;;;3.50;99.90;;;;;;5069976;28;20042;-47
2022/03/01 00:38:49;;;;;;;18.15;11.57;;;3.50;99.90;;;;;;5070619;28;20040;-47
2022/03/01 00:41:14;;;;;;;20.13;10.90;;;3.50;99.90;;;;;;5070328;28;20076;-45
2022/03/01 00:43:40;;;;;;;17.35;10.77;;;3.60;99.90;;;;;;5070424;28;20051;-45
2022/03/01 00:46:06;;;;;;;17.67;10.65;;;3.50;99.90;;;;;;5070321;28;20513;-44
2022/03/01 00:48:32;;;;;;;18.83;11.23;;;3.50;99.90;;;;;;5069302;28;20047;-45
2022/03/01 00:50:57;;;;;;;19.92;11.40;;;3.40;99.90;;;;;;5069092;28;20102;-45
2022/03/01 00:53:23;;;;;;;19.45;11.23;;;3.40;99.90;;;;;;5069002;28;20039;-43
2022/03/01 00:55:49;;;;;;;18.17;10.32;;;3.40;99.90;;;;;;5069925;28;20036;-46
2022/03/01 00:58:15;;;;;;;17.70;10.70;;;3.40;99.90;;;;;;5070213;28;20037;-47
2022/03/01 01:00:40;;;;;;;17.02;10.27;;;3.40;99.90;;;;;;5069907;28;20064;-42
2022/03/01 01:03:06;;;;;;;18.98;10.82;;;3.40;99.90;;;;;;5070065;28;20068;-43
2022/03/01 01:05:32;;;;;;;19.55;10.50;;;3.40;99.90;;;;;;5069623;28;20136;-46
2022/03/01 01:07:58;;;;;;;19.83;11.07;;;3.30;99.90;;;;;;5070066;28;20094;-45
2022/03/01 01:10:23;;;;;;;20.92;11.55;;;3.40;99.90;;;;;;5070053;28;20392;-45
2022/03/01 01:12:49;;;;;;;17.30;10.82;;;3.30;99.90;;;;;;5069982;28;20450;-46
2022/03/01 01:15:17;;;;;;;18.83;10.50;;;3.30;99.90;;;;;;5069759;28;20369;-44
2022/03/01 01:17:43;;;;;;;15.85;9.45;;;3.30;99.90;;;;;;5069712;28;20042;-47
2022/03/01 01:20:09;;;;;;;17.90;10.90;;;3.20;99.90;;;;;;5069946;28;20486;-44
2022/03/01 01:22:41;;;;;;;17.95;10.45;;;3.20;99.90;;;;;;5069902;28;20484;-45
2022/03/01 01:25:13;;;;;;;18.45;10.77;;;3.20;99.90;;;;;;5069577;28;20074;-46
2022/03/01 01:27:40;;;;;;;21.73;10.65;;;3.20;99.90;;;;;;5069515;28;20041;-44
2022/03/01 01:30:11;;;;;;;18.92;10.40;;;3.20;99.90;;;;;;5069875;28;20037;-45
2022/03/01 01:32:38;;;;;;;19.40;10.88;;;3.20;99.90;;;;;;5069267;28;20032;-43
2022/03/01 01:35:04;;;;;;;18.70;10.48;;;3.20;99.90;;;;;;5069081;28;20036;-44
2022/03/01 01:37:30;;;;;;;17.08;10.82;;;3.20;99.90;;;;;;5069600;28;20036;-45
2022/03/01 01:39:56;;;;;;;19.75;10.65;;;3.10;99.90;;;;;;5069776;28;20047;-45
2022/03/01 01:42:22;;;;;;;20.90;11.60;;;3.10;99.90;;;;;;5069639;28;20041;-45
2022/03/01 01:44:47;;;;;;;18.67;10.27;;;3.10;99.90;;;;;;5069225;28;20033;-44
2022/03/01 01:47:13;;;;;;;18.10;11.10;;;3.10;99.90;;;;;;5069802;28;20039;-43
2022/03/01 01:49:39;;;;;;;17.98;11.23;;;3.10;99.90;;;;;;5069564;28;20557;-43
2022/03/01 01:52:05;;;;;;;19.98;11.63;;;3.10;99.90;;;;;;5069134;28;20086;-45
2022/03/01 01:54:31;;;;;;;17.25;11.02;;;3.00;99.90;;;;;;5069440;28;20056;-45
2022/03/01 01:56:57;;;;;;;21.13;11.23;;;3.00;99.90;;;;;;5069654;28;20043;-44
2022/03/01 01:59:23;;;;;;;19.80;11.60;;;3.00;99.90;;;;;;5069332;28;20467;-45
2022/03/01 02:01:49;;;;;;;21.45;11.75;;;2.90;99.90;;;;;;5066965;28;20043;-44
2022/03/01 02:04:14;;;;;;;20.83;11.80;;;2.90;99.90;;;;;;5068413;28;20124;-46
2022/03/01 02:06:54;;;;;;;17.75;11.50;;;2.90;99.90;;;;;;5069382;28;20119;-44
2022/03/01 02:09:20;;;;;;;21.08;11.75;;;2.90;99.90;;;;;;5069582;28;20043;-47
2022/03/01 02:11:46;;;;;;;21.42;11.48;;;2.90;99.90;;;;;;5068866;28;20047;-42
2022/03/01 02:14:12;;;;;;;21.88;12.27;;;2.90;99.90;;;;;;5068117;28;20127;-43
2022/03/01 02:16:39;;;;;;;24.25;11.70;;;2.90;99.90;;;;;;5067766;28;20045;-44
2022/03/01 02:19:05;;;;;;;19.38;11.52;;;2.80;99.90;;;;;;5069063;28;20102;-43
2022/03/01 02:21:31;;;;;;;18.73;11.48;;;2.90;99.90;;;;;;5068852;28;20044;-47
2022/03/01 02:23:57;;;;;;;19.90;11.60;;;2.90;99.90;;;;;;5069070;28;20086;-44
2022/03/01 02:26:23;;;;;;;20.13;12.90;;;2.90;99.90;;;;;;5069185;28;20495;-43
2022/03/01 02:28:49;;;;;;;20.20;11.40;;;2.90;99.90;;;;;;5067211;28;20044;-49
2022/03/01 02:31:15;;;;;;;19.58;10.95;;;2.90;99.90;;;;;;5069594;28;20087;-43
2022/03/01 02:33:41;;;;;;;18.40;11.55;;;2.90;99.90;;;;;;5068802;28;20040;-44
2022/03/01 02:36:07;;;;;;;18.83;11.18;;;2.80;99.90;;;;;;5068086;28;20043;-45
2022/03/01 02:38:32;;;;;;;21.17;11.93;;;2.90;99.90;;;;;;5067627;28;20048;-45
2022/03/01 02:40:58;;;;;;;21.08;11.80;;;2.90;99.90;;;;;;5068730;28;20037;-42
2022/03/01 02:43:24;;;;;;;20.90;12.20;;;2.90;99.90;;;;;;5068690;28;20043;-43
2022/03/01 02:45:49;;;;;;;21.15;11.68;;;2.90;99.90;;;;;;5071002;28;20033;-44
2022/03/01 02:48:15;;;;;;;19.55;11.85;;;2.90;99.90;;;;;;5072550;28;20051;-43
2022/03/01 02:50:40;;;;;;;20.15;12.27;;;2.90;99.90;;;;;;5072551;28;20109;-42
2022/03/01 02:53:07;;;;;;;20.02;11.38;;;2.90;99.90;;;;;;5071503;28;20033;-42
2022/03/01 02:55:33;;;;;;;21.25;12.40;;;2.90;99.90;;;;;;5072110;28;20047;-45
2022/03/01 02:57:58;;;;;;;19.58;11.80;;;2.90;99.90;;;;;;5072508;28;20241;-44
2022/03/01 03:00:24;;;;;;;21.17;12.13;;;2.90;99.90;;;;;;5072452;28;20044;-43
2022/03/01 03:02:50;;;;;;;21.95;11.95;;;2.90;99.90;;;;;;5072435;28;20127;-45
2022/03/01 03:05:15;;;;;;;19.08;11.75;;;2.80;99.90;;;;;;5071960;28;20917;-43
2022/03/01 03:07:41;;;;;;;20.30;12.35;;;2.80;99.90;;;;;;5072162;28;20048;-44
2022/03/01 03:10:07;;;;;;;17.92;11.70;;;2.80;99.90;;;;;;5072319;28;20037;-45
2022/03/01 03:12:33;;;;;;;22.50;12.55;;;2.80;99.90;;;;;;5072025;28;20059;-44
2022/03/01 03:14:59;;;;;;;21.08;11.63;;;2.80;99.90;;;;;;5072229;28;20048;-43
2022/03/01 03:17:25;;;;;;;20.70;12.35;;;2.80;99.90;;;;;;5072229;28;20380;-43
2022/03/01 03:19:50;;;;;;;18.88;11.25;;;2.80;99.90;;;;;;5072241;28;20040;-47
2022/03/01 03:22:16;;;;;;;20.60;11.98;;;2.80;99.90;;;;;;5072127;28;20432;-43
2022/03/01 03:24:42;;;;;;;22.70;12.50;;;2.80;99.90;;;;;;5071972;28;20161;-45
2022/03/01 03:27:07;;;;;;;20.52;11.90;;;2.80;99.90;;;;;;5072062;28;20036;-43
2022/03/01 03:29:33;;;;;;;21.30;12.65;;;2.80;99.90;;;;;;5070158;28;20103;-46
2022/03/01 03:31:59;;;;;;;23.60;12.48;;;2.70;99.90;;;;;;5071799;28;20036;-45
2022/03/01 03:34:25;;;;;;;20.27;11.93;;;2.70;99.90;;;;;;5069781;28;20118;-47
2022/03/01 03:36:51;;;;;;;20.58;12.05;;;2.70;99.90;;;;;;5071878;28;20411;-47
2022/03/01 03:39:17;;;;;;;19.15;11.65;;;2.70;99.90;;;;;;5071801;28;20041;-46
2022/03/01 03:41:42;;;;;;;23.92;12.32;;;2.70;99.90;;;;;;5071626;28;20453;-46
2022/03/01 03:44:08;;;;;;;21.98;12.05;;;2.70;99.90;;;;;;5071693;28;20037;-45
2022/03/01 03:46:34;;;;;;;21.45;12.55;;;2.60;99.90;;;;;;5071540;28;20020;-45
2022/03/01 03:49:00;;;;;;;23.17;12.55;;;2.70;99.90;;;;;;5071679;28;20040;-43
2022/03/01 03:51:26;;;;;;;22.38;12.48;;;2.70;99.90;;;;;;5071518;28;20105;-46
2022/03/01 03:53:52;;;;;;;19.75;11.90;;;2.70;99.90;;;;;;5071227;28;20044;-42
2022/03/01 03:56:18;;;;;;;21.17;12.57;;;2.70;99.90;;;;;;5070939;28;20036;-45
2022/03/01 03:58:44;;;;;;;21.75;12.35;;;2.70;99.90;;;;;;5071498;28;20391;-43
2022/03/01 04:01:10;;;;;;;22.08;12.50;;;2.70;99.90;;;;;;5071381;28;20051;-44
2022/03/01 04:03:35;;;;;;;20.00;11.95;;;2.70;99.90;;;;;;5071311;28;20396;-43
2022/03/01 04:06:01;;;;;;;20.80;12.50;;;3.00;99.90;;;;;;5068176;28;20040;-45
2022/03/01 04:08:27;;;;;;;20.35;12.35;;;2.70;99.90;;;;;;5070876;28;20033;-45
2022/03/01 04:10:57;;;;;;;23.88;12.45;;;2.70;99.90;;;;;;5071100;28;20034;-44
2022/03/01 04:13:24;;;;;;;20.58;12.55;;;2.70;99.90;;;;;;5070331;28;20047;-46
2022/03/01 04:15:50;;;;;;;22.88;12.20;;;2.70;99.90;;;;;;5070892;28;20040;-42
2022/03/01 04:18:16;;;;;;;23.38;12.65;;;2.60;99.90;;;;;;5070702;28;20064;-48
2022/03/01 04:20:42;;;;;;;20.92;12.38;;;2.60;99.90;;;;;;5070659;28;20125;-46
2022/03/01 04:23:08;;;;;;;20.52;12.65;;;2.60;99.90;;;;;;5069758;28;20090;-45
2022/03/01 04:25:34;;;;;;;23.55;12.90;;;2.60;99.90;;;;;;5068492;28;20438;-46
2022/03/01 04:28:00;;;;;;;24.13;13.52;;;2.60;99.90;;;;;;5070014;28;20048;-47
2022/03/01 04:30:27;;;;;;;23.02;12.38;;;2.60;99.90;;;;;;5070359;28;20040;-43
2022/03/01 04:32:53;;;;;;;20.58;12.57;;;2.60;99.90;;;;;;5070403;28;20039;-43
2022/03/01 04:35:19;;;;;;;22.50;13.23;;;2.50;99.90;;;;;;5069920;28;20032;-47
2022/03/01 04:37:45;;;;;;;21.38;12.70;;;2.50;99.90;;;;;;5069800;28;20446;-49
2022/03/01 04:40:13;;;;;;;21.08;12.85;;;2.50;99.90;;;;;;5070089;28;20483;-48
2022/03/01 04:42:39;;;;;;;23.52;12.93;;;2.50;99.90;;;;;;5070100;28;20120;-44
2022/03/01 04:45:05;;;;;;;21.95;13.02;;;2.50;99.90;;;;;;5068683;28;20072;-44
2022/03/01 04:47:31;;;;;;;23.48;12.75;;;2.50;99.90;;;;;;5069012;28;20040;-44
2022/03/01 04:49:58;;;;;;;22.15;12.45;;;2.50;99.90;;;;;;5070238;28;20531;-46
2022/03/01 04:52:24;;;;;;;24.10;13.32;;;2.50;99.90;;;;;;5070364;28;20517;-45
2022/03/01 04:54:50;;;;;;;24.27;14.05;;;2.40;99.90;;;;;;5069711;28;20123;-45
2022/03/01 04:57:16;;;;;;;20.00;12.38;;;2.40;99.90;;;;;;5070233;28;20060;-42
2022/03/01 04:59:42;;;;;;;24.00;13.93;;;2.40;99.90;;;;;;5069770;28;20080;-44
2022/03/01 05:02:07;;;;;;;23.15;13.43;;;2.40;99.90;;;;;;5070084;28;20041;-47
2022/03/01 05:04:33;;;;;;;24.00;13.48;;;2.40;99.90;;;;;;5068586;28;20072;-44
2022/03/01 05:06:59;;;;;;;21.55;13.00;;;2.40;99.90;;;;;;5069420;28;20032;-45
2022/03/01 05:09:24;;;;;;;22.58;12.82;;;2.40;99.90;;;;;;5069671;28;20063;-44
2022/03/01 05:11:51;;;;;;;22.10;13.07;;;2.40;99.90;;;;;;5070045;28;20032;-46
2022/03/01 05:14:18;;;;;;;21.75;13.90;;;2.50;99.90;;;;;;5069736;28;20037;-44
2022/03/01 05:16:45;;;;;;;23.88;13.15;;;2.40;99.90;;;;;;5068375;28;20032;-45
2022/03/01 05:19:11;;;;;;;22.25;12.80;;;2.40;99.90;;;;;;5069674;28;20153;-45
2022/03/01 05:21:37;;;;;;;23.40;13.38;;;2.40;99.90;;;;;;5069737;28;20551;-46
2022/03/01 05:24:04;;;;;;;20.20;12.80;;;2.40;99.90;;;;;;5069270;28;20071;-44
2022/03/01 05:26:29;;;;;;;24.20;13.32;;;2.40;99.90;;;;;;5069999;28;20028;-46
2022/03/01 05:28:55;;;;;;;21.15;13.05;;;2.40;99.90;;;;;;5069427;28;20412;-43
2022/03/01 05:31:21;;;;;;;21.48;12.27;;;2.40;99.90;;;;;;5069568;28;20380;-44
2022/03/01 05:33:47;;;;;;;24.65;13.25;;;2.40;99.90;;;;;;5069405;28;20036;-44
2022/03/01 05:36:16;;;;;;;22.85;13.40;;;2.40;99.90;;;;;;5067993;28;20028;-46
2022/03/01 05:38:43;;;;;;;22.17;13.15;;;2.40;99.90;;;;;;5069772;28;20103;-46
2022/03/01 05:41:09;;;;;;;22.45;12.82;;;2.40;99.90;;;;;;5069650;28;20479;-46
2022/03/01 05:43:36;;;;;;;21.52;12.98;;;2.40;99.90;;;;;;5069501;28;20048;-42
2022/03/01 05:46:02;;;;;;;24.13;13.77;;;2.40;99.90;;;;;;5069616;28;20391;-47
2022/03/01 05:48:28;;;;;;;21.17;12.68;;;2.30;99.90;;;;;;5068414;28;20066;-45
2022/03/01 05:50:55;;;;;;;22.40;13.27;;;2.30;99.90;;;;;;5069556;28;20416;-44
2022/03/01 05:53:21;;;;;;;25.02;13.50;;;2.30;99.90;;;;;;5069587;28;20063;-45
2022/03/01 05:55:47;;;;;;;23.58;13.93;;;2.30;99.90;;;;;;5069350;28;20060;-42
2022/03/01 05:58:13;;;;;;;24.52;13.90;;;2.30;99.90;;;;;;5069667;28;21276;-48
2022/03/01 06:00:39;;;;;;;24.60;14.27;;;2.30;99.90;;;;;;5069509;28;20036;-47
2022/03/01 06:03:05;;;;;;;23.95;14.30;;;2.30;99.90;;;;;;5069530;28;20047;-44
2022/03/01 06:05:31;;;;;;;23.30;13.00;;;2.40;99.90;;;;;;5069222;28;20043;-44
2022/03/01 06:07:57;;;;;;;22.38;13.13;;;2.30;99.90;;;;;;5069279;28;20094;-45
2022/03/01 06:10:24;;;;;;;22.70;13.25;;;2.30;99.90;;;;;;5067779;28;20043;-46
2022/03/01 06:12:50;;;;;;;23.45;14.43;;;2.30;99.90;;;;;;5069318;28;20047;-45
2022/03/01 06:15:16;;;;;;;24.52;13.95;;;2.30;99.90;;;;;;5069195;28;20536;-44
2022/03/01 06:17:42;;;;;;;22.92;13.80;;;2.30;99.90;;;;;;5069121;28;20091;-43
2022/03/01 06:20:10;;;;;;;21.75;13.75;;;2.30;99.90;;;;;;5072101;28;20056;-43
2022/03/01 06:22:36;;;;;;;22.77;13.98;;;2.30;99.90;;;;;;5072641;28;20071;-44
2022/03/01 06:25:03;;;;;;;22.63;13.57;;;2.40;99.90;;;;;;5072877;28;20371;-43
2022/03/01 06:27:28;;;;;;;23.60;13.85;;;2.40;99.90;;;;;;5072784;28;20086;-46
2022/03/01 06:29:54;;;;;;;23.67;13.10;;;2.40;99.90;;;;;;5072743;28;20441;-44
2022/03/01 06:32:20;;;;;;;24.75;14.73;;;2.40;99.90;;;;;;5073040;28;20064;-44
2022/03/01 06:34:46;;;;;;;27.75;15.25;;;2.40;99.90;;;;;;5071943;28;20047;-44
2022/03/01 06:37:15;;;;;;;24.58;13.95;;;2.40;99.90;;;;;;5072387;28;20036;-43
2022/03/01 06:39:42;;;;;;;23.98;13.85;;;2.50;99.90;;;;;;5071851;28;20036;-45
2022/03/01 06:42:09;;;;;;;23.70;12.85;;;2.50;99.90;;;;;;5072470;28;20048;-46
2022/03/01 06:44:35;;;;;;;24.08;13.68;;;2.50;99.90;;;;;;5072167;28;20036;-45
2022/03/01 06:47:00;;;;;;;22.73;13.57;;;2.50;99.90;;;;;;5072783;28;20040;-45
2022/03/01 06:49:26;;;;;;;24.48;14.05;;;2.50;99.90;;;;;;5072323;28;20040;-47
2022/03/01 06:51:51;;;;;;;24.20;14.20;;;2.60;99.90;;;;;;5072650;28;20032;-44
2022/03/01 06:54:17;;;;;;;26.27;14.18;;;2.60;99.90;;;;;;5072164;28;20093;-43
2022/03/01 06:56:43;;;;;;;23.08;14.35;;;2.60;99.90;;;;;;5071048;28;20068;-48
2022/03/01 06:59:09;;;;;;;21.45;13.45;;;2.60;99.90;;;;;;5072454;28;20068;-43
2022/03/01 07:01:35;;;;;;;24.25;14.10;;;2.70;99.90;;;;;;5072235;28;20399;-45
2022/03/01 07:04:00;;;;;;;22.83;13.27;;;2.70;99.90;;;;;;5072420;28;20106;-47
2022/03/01 07:06:26;;;;;;;24.00;13.80;;;2.70;99.90;;;;;;5071968;28;20064;-46
2022/03/01 07:08:52;;;;;;;25.40;14.73;;;2.70;99.90;;;;;;5072427;28;20072;-46
2022/03/01 07:11:17;;;;;;;28.52;15.15;;;2.80;99.90;;;;;;5072323;28;20033;-43
2022/03/01 07:13:43;;;;;;;24.67;13.68;;;2.80;99.90;;;;;;5072045;28;20040;-45
2022/03/01 07:16:09;;;;;;;22.88;13.60;;;2.80;99.90;;;;;;5072300;28;20040;-43
2022/03/01 07:18:35;;;;;;;25.50;13.63;;;2.80;99.90;;;;;;5070547;28;20032;-44
2022/03/01 07:21:01;;;;;;;24.20;14.15;;;2.80;99.90;;;;;;5072250;28;20383;-42
2022/03/01 07:23:27;;;;;;;22.25;14.18;;;2.80;99.90;;;;;;5071916;28;20040;-43
2022/03/01 07:25:52;;;;;;;21.85;13.73;;;2.80;99.90;;;;;;5071945;28;20036;-43
2022/03/01 07:28:18;;;;;;;24.83;14.02;;;2.80;99.90;;;;;;5071561;28;20114;-44
2022/03/01 07:30:43;;;;;;;27.10;14.57;;;2.80;99.90;;;;;;5071035;28;20032;-44
2022/03/01 07:33:09;;;;;;;27.33;15.07;;;2.90;99.90;;;;;;5071993;28;20036;-46
2022/03/01 07:35:35;;;;;;;23.48;14.15;;;2.90;99.90;;;;;;5071401;28;20044;-43
2022/03/01 07:38:00;;;;;;;26.02;15.00;;;3.10;99.90;;;;;;5071892;28;20529;-46
2022/03/01 07:40:27;;;;;;;27.20;15.10;;;2.90;99.90;;;;;;5071539;28;20123;-44
2022/03/01 07:42:53;;;;;;;23.33;13.38;;;2.90;99.90;;;;;;5071780;28;20109;-43
2022/03/01 07:45:19;;;;;;;22.58;13.82;;;2.90;99.90;;;;;;5071662;28;20080;-45
2022/03/01 07:47:45;;;;;;;22.73;13.45;;;3.00;99.90;;;;;;5070119;28;20040;-45
2022/03/01 07:50:11;;;;;;;23.67;14.30;;;3.00;99.90;;;;;;5071317;28;20086;-42
2022/03/01 07:52:37;;;;;;;26.33;14.75;;;3.00;99.90;;;;;;5069957;28;20090;-46
2022/03/01 07:55:04;;;;;;;24.48;14.13;;;3.00;99.90;;;;;;5071486;28;20079;-43
2022/03/01 07:57:30;;;;;;;22.35;14.07;;;3.00;99.90;;;;;;5071362;28;20480;-48
2022/03/01 07:59:56;;;;;;;22.73;13.57;;;3.10;99.90;;;;;;5070949;28;20044;-45
2022/03/01 08:02:21;;;;;;;22.90;13.23;;;3.10;99.90;;;;;;5071106;28;20089;-43
2022/03/01 08:04:47;;;;;;;26.10;13.77;;;3.10;99.90;;;;;;5069450;28;20059;-45
2022/03/01 08:07:13;;;;;;;24.38;14.50;;;3.10;99.90;;;;;;5071141;28;20074;-44
2022/03/01 08:09:40;;;;;;;24.48;14.80;;;3.20;99.90;;;;;;5066673;28;20548;-44
2022/03/01 08:12:07;;;;;;;23.08;13.88;;;3.20;99.90;;;;;;5071008;28;20106;-44
2022/03/01 08:14:34;;;;;;;23.35;14.60;;;3.30;99.90;;;;;;5070055;28;20506;-42
2022/03/01 08:17:01;;;;;;;22.65;14.02;;;3.30;99.90;;;;;;5070794;28;20045;-44
2022/03/01 08:19:27;;;;;;;28.70;14.73;;;3.40;99.90;;;;;;5069047;28;20040;-45
2022/03/01 08:21:53;;;;;;;26.95;14.65;;;3.40;99.90;;;;;;5070494;28;20493;-46
2022/03/01 08:24:19;;;;;;;24.08;13.85;;;3.40;99.90;;;;;;5066619;28;20106;-43
2022/03/01 08:26:45;;;;;;;24.90;14.63;;;3.50;99.90;;;;;;5065382;28;20045;-44
2022/03/01 08:29:12;;;;;;;24.55;14.18;;;3.60;99.90;;;;;;5060544;28;20110;-45
2022/03/01 08:31:41;;;;;;;23.38;13.70;;;3.70;99.90;;;;;;5067532;28;20044;-46
2022/03/01 08:34:07;;;;;;;25.33;13.75;;;3.70;99.90;;;;;;5064422;28;20438;-44
2022/03/01 08:36:32;;;;;;;24.20;13.65;;;3.80;99.90;;;;;;5056106;28;20082;-44
2022/03/01 08:38:58;;;;;;;23.63;14.20;;;3.90;99.90;;;;;;5060300;28;20052;-43
2022/03/01 08:41:24;;;;;;;24.05;14.23;;;4.00;99.90;;;;;;5060339;28;20066;-43
2022/03/01 08:43:50;;;;;;;21.73;13.52;;;4.10;99.90;;;;;;5058399;28;20041;-45
2022/03/01 08:46:16;;;;;;;22.58;13.80;;;4.10;99.90;;;;;;5059572;28;20028;-44
2022/03/01 08:48:41;;;;;;;22.40;13.02;;;4.20;99.90;;;;;;5059124;28;20035;-46
2022/03/01 08:51:07;;;;;;;26.20;15.07;;;4.20;99.90;;;;;;5061368;28;20040;-44
2022/03/01 08:53:33;;;;;;;24.65;14.38;;;4.30;99.90;;;;;;5061901;28;20076;-49
2022/03/01 08:56:00;;;;;;;23.35;13.52;;;4.30;99.90;;;;;;5061694;28;20537;-44
2022/03/01 08:58:26;;;;;;;23.58;13.82;;;4.40;99.90;;;;;;5065461;28;20082;-49
2022/03/01 09:00:52;;;;;;;23.38;13.48;;;4.40;99.90;;;;;;5062939;28;20048;-43
2022/03/01 09:03:18;;;;;;;21.83;13.63;;;4.50;99.90;;;;;;5064358;28;20048;-44
2022/03/01 09:05:44;;;;;;;22.38;13.45;;;4.60;99.90;;;;;;5068556;28;20383;-45
2022/03/01 09:08:12;;;;;;;24.27;13.32;;;4.70;99.90;;;;;;5069703;28;20062;-43
2022/03/01 09:10:39;;;;;;;21.23;12.80;;;4.80;99.90;;;;;;5068556;28;20037;-46
2022/03/01 09:13:05;;;;;;;24.25;13.30;;;4.90;99.90;;;;;;5069563;28;20033;-43
2022/03/01 09:15:32;;;;;;;21.98;12.35;;;4.90;99.90;;;;;;5069700;28;20036;-44
2022/03/01 09:18:03;;;;;;;26.13;13.30;;;5.00;99.90;;;;;;5069888;28;20364;-44
2022/03/01 09:20:29;;;;;;;21.73;13.40;;;5.10;99.90;;;;;;5069757;28;20032;-44
2022/03/01 09:22:55;;;;;;;22.55;13.23;;;5.10;99.90;;;;;;5067911;28;20051;-43
2022/03/01 09:25:21;;;;;;;22.17;13.10;;;5.10;99.90;;;;;;5068611;28;20045;-44
2022/03/01 09:27:47;;;;;;;21.58;13.00;;;5.00;99.90;;;;;;5068943;28;20483;-44
2022/03/01 09:30:13;;;;;;;20.92;13.18;;;5.00;99.90;;;;;;5069803;28;20487;-47
2022/03/01 09:32:40;;;;;;;24.15;13.05;;;5.00;99.90;;;;;;5069607;28;20060;-46
2022/03/01 09:35:07;;;;;;;23.13;14.02;;;5.00;99.90;;;;;;5069078;28;20081;-42
2022/03/01 09:37:33;;;;;;;21.63;13.40;;;5.10;99.90;;;;;;5069638;28;20044;-43
2022/03/01 09:40:00;;;;;;;21.58;13.52;;;5.10;99.90;;;;;;5069741;28;20093;-43
2022/03/01 09:42:27;;;;;;;20.30;13.00;;;5.10;99.90;;;;;;5068634;28;20692;-43
2022/03/01 09:44:56;;;;;;;21.63;12.85;;;5.10;99.90;;;;;;5069497;28;20067;-44
2022/03/01 09:47:22;;;;;;;21.67;13.38;;;5.20;99.90;;;;;;5069423;28;20506;-46
2022/03/01 09:49:48;;;;;;;26.23;13.35;;;5.20;99.90;;;;;;5068700;28;20040;-46
2022/03/01 09:52:14;;;;;;;20.55;12.65;;;5.20;99.90;;;;;;5069042;28;20060;-48
2022/03/01 09:54:41;;;;;;;22.75;13.50;;;5.30;99.90;;;;;;5071971;28;20041;-44
2022/03/01 09:57:06;;;;;;;21.00;12.80;;;5.40;99.90;;;;;;5073332;28;20047;-46
2022/03/01 09:59:32;;;;;;;22.35;13.38;;;5.60;99.90;;;;;;5071760;28;20036;-44
2022/03/01 10:01:58;;;;;;;22.10;12.98;;;5.70;99.90;;;;;;5073552;28;20376;-44
2022/03/01 10:04:25;;;;;;;23.65;13.00;;;5.90;99.90;;;;;;5073474;28;20032;-46
2022/03/01 10:06:51;;;;;;;22.23;13.70;;;5.90;99.90;;;;;;5071881;28;20063;-43
2022/03/01 10:09:20;;;;;;;23.95;14.25;;;5.90;99.90;;;;;;5073494;28;20064;-43
2022/03/01 10:11:47;;;;;;;22.52;13.35;;;6.10;99.90;;;;;;5073373;28;20028;-44
2022/03/01 10:14:14;;;;;;;21.75;12.70;;;6.20;99.90;;;;;;5073191;28;20039;-45
2022/03/01 10:16:42;;;;;;;23.73;13.52;;;6.30;99.90;;;;;;5072887;28;20062;-43
2022/03/01 10:19:17;;;;;;;21.83;13.10;;;6.50;99.90;;;;;;5072154;28;20125;-43
2022/03/01 10:21:46;;;;;;;22.50;13.48;;;6.60;99.90;;;;;;5066544;28;20040;-47
2022/03/01 10:24:13;;;;;;;21.35;12.93;;;6.70;99.90;;;;;;5069491;28;20052;-44
2022/03/01 10:26:39;;;;;;;19.13;12.20;;;6.90;99.90;;;;;;5065337;28;20033;-43
2022/03/01 10:29:06;;;;;;;20.67;12.50;;;7.00;99.90;;;;;;5068234;28;20052;-44
2022/03/01 10:31:34;;;;;;;22.35;13.18;;;7.20;99.90;;;;;;5068606;28;20403;-44
2022/03/01 10:34:03;;;;;;;22.58;13.18;;;7.30;99.90;;;;;;5065073;28;20048;-45
2022/03/01 10:36:33;;;;;;;21.10;13.27;;;7.20;99.90;;;;;;5066366;28;20051;-47
2022/03/01 10:39:12;;;;;;;20.38;12.10;;;7.30;99.90;;;;;;5066000;28;20157;-47
2022/03/01 10:41:43;;;;;;;20.65;12.65;;;7.10;99.90;;;;;;5067636;28;20040;-44
2022/03/01 10:44:20;;;;;;;21.38;12.93;;;7.10;99.90;;;;;;5068116;28;20445;-45
2022/03/01 10:46:54;;;;;;;23.88;14.20;;;7.10;99.90;;;;;;5064718;28;20507;-46
2022/03/01 10:49:25;;;;;;;21.17;12.93;;;7.10;99.90;;;;;;5066417;28;20037;-47
2022/03/01 10:51:56;;;;;;;20.92;13.40;;;7.10;99.90;;;;;;5065781;28;20028;-44
2022/03/01 10:54:29;;;;;;;23.80;13.60;;;7.10;99.90;;;;;;5067674;28;20048;-45
2022/03/01 10:56:56;;;;;;;22.00;13.88;;;7.20;99.90;;;;;;5067864;28;20104;-42
2022/03/01 10:59:27;;;;;;;21.75;13.05;;;7.20;99.90;;;;;;5064859;28;20037;-44
2022/03/01 11:01:54;;;;;;;21.95;13.18;;;7.20;99.90;;;;;;5069178;28;20068;-44
2022/03/01 11:04:24;;;;;;;20.67;12.93;;;7.30;99.90;;;;;;5064449;28;20476;-43
2022/03/01 11:06:51;;;;;;;21.27;12.77;;;7.50;99.90;;;;;;5067742;28;20391;-49
2022/03/01 11:09:17;;;;;;;21.48;13.05;;;7.60;99.90;;;;;;5065515;28;20111;-46
2022/03/01 11:11:44;;;;;;;22.15;12.95;;;7.70;99.90;;;;;;5065081;28;20044;-43
2022/03/01 11:14:14;;;;;;;22.85;13.30;;;7.60;99.90;;;;;;5067953;28;20044;-45
2022/03/01 11:16:53;;;;;;;20.58;13.20;;;7.60;99.90;;;;;;5066838;28;20067;-45
2022/03/01 11:19:40;;;;;;;20.75;13.32;;;7.80;99.90;;;;;;5069484;28;20040;-46
2022/03/01 11:22:17;;;;;;;22.48;13.25;;;7.90;99.90;;;;;;5070436;28;20029;-49
2022/03/01 11:24:43;;;;;;;22.00;12.25;;;7.90;99.90;;;;;;5071724;28;20052;-44
2022/03/01 11:27:09;;;;;;;22.17;13.65;;;8.00;99.90;;;;;;5072130;28;20036;-46
2022/03/01 11:29:39;;;;;;;22.35;14.20;;;8.00;99.90;;;;;;5071474;28;20060;-47
2022/03/01 11:32:12;;;;;;;24.42;13.15;;;8.10;99.90;;;;;;5070851;28;20049;-46
2022/03/01 11:34:39;;;;;;;21.38;13.50;;;8.00;99.90;;;;;;5071665;28;20958;-45
2022/03/01 11:37:18;;;;;;;19.05;11.30;;;8.00;99.90;;;;;;5070714;28;20048;-45
2022/03/01 11:39:54;;;;;;;20.60;12.55;;;8.00;99.90;;;;;;5071616;28;20047;-45
2022/03/01 11:42:21;;;;;;;19.15;12.63;;;8.00;99.90;;;;;;5071646;28;20392;-44
2022/03/01 11:44:54;;;;;;;20.80;12.70;;;7.90;99.90;;;;;;5071544;28;20044;-43
2022/03/01 11:47:31;;;;;;;20.58;13.15;;;7.90;99.90;;;;;;5069977;28;20115;-44
2022/03/01 11:50:08;;;;;;;19.67;12.75;;;7.90;99.90;;;;;;5071156;28;20047;-43
2022/03/01 11:52:34;;;;;;;21.60;13.45;;;7.90;99.90;;;;;;5070403;28;20410;-46
2022/03/01 11:55:01;;;;;;;20.20;12.88;;;8.00;99.90;;;;;;5070514;28;20056;-49
2022/03/01 11:57:29;;;;;;;23.48;13.18;;;7.90;99.90;;;;;;5070888;28;20049;-46
2022/03/01 11:59:58;;;;;;;23.52;13.85;;;7.90;99.90;;;;;;5070725;28;20094;-48
2022/03/01 12:02:26;;;;;;;21.50;13.90;;;7.80;99.90;;;;;;5070998;28;20535;-44
2022/03/01 12:04:55;;;;;;;22.17;13.10;;;7.80;99.90;;;;;;5069275;28;20372;-44
2022/03/01 12:07:24;;;;;;;21.20;13.32;;;7.80;99.90;;;;;;5070780;28;20028;-42
2022/03/01 12:10:05;;;;;;;22.30;13.25;;;7.80;99.90;;;;;;5070201;28;20036;-42
2022/03/01 12:12:33;;;;;;;21.20;13.18;;;7.80;99.90;;;;;;5070206;28;20054;-45
2022/03/01 12:14:59;;;;;;;19.77;13.20;;;7.70;99.90;;;;;;5069243;28;20062;-46
2022/03/01 12:17:25;;;;;;;20.80;12.95;;;7.70;99.90;;;;;;5068621;28;20040;-43
2022/03/01 12:20:01;;;;;;;20.40;13.32;;;7.70;99.90;;;;;;5070517;28;20543;-42
2022/03/01 12:22:27;;;;;;;21.70;13.00;;;7.70;99.90;;;;;;5070265;28;20053;-48
2022/03/01 12:24:56;;;;;;;22.13;14.02;;;7.70;99.90;;;;;;5070305;28;20041;-44
2022/03/01 12:27:21;;;;;;;22.95;13.82;;;7.80;99.90;;;;;;5068978;28;20052;-44
2022/03/01 12:29:51;;;;;;;22.40;13.88;;;7.80;99.90;;;;;;5070204;28;20045;-42
2022/03/01 12:32:18;;;;;;;22.83;13.13;;;7.80;99.90;;;;;;5067088;28;20056;-43
2022/03/01 12:34:44;;;;;;;21.55;13.27;;;7.80;99.90;;;;;;5066422;28;20444;-45